Time;durP1;ratioP1;P1;durP2;ratioP2;P2;SDS_P1;SDS_P2;PMS_P1;PMS_P2;Temp;Humidity;BMP_temperature;BMP_pressure;BME280_temperature;BME280_humidity;BME280_pressure;Samples;Min_cycle;Max_cycle;Signal;HPM_P1;HPM_P2
2023/06/08 00:00:28;;;;;;;8.87;6.50;;;;;;;19.19;78.69;100372.44;5060222;28;20222;-67
2023/06/08 00:02:57;;;;;;;9.93;6.43;;;;;;;19.26;79.24;100369.59;5062297;28;20226;-68
2023/06/08 00:05:23;;;;;;;7.83;6.47;;;;;;;19.26;78.43;100364.22;5065086;28;20252;-67
2023/06/08 00:07:50;;;;;;;7.17;5.97;;;;;;;19.29;78.40;100372.22;5041583;28;20294;-67
2023/06/08 00:10:16;;;;;;;8.13;6.43;;;;;;;19.33;78.60;100364.97;5059176;28;20607;-67
2023/06/08 00:12:42;;;;;;;8.40;6.60;;;;;;;19.34;79.93;100372.97;5062849;28;20565;-67
2023/06/08 00:15:10;;;;;;;7.60;6.13;;;;;;;19.27;80.55;100363.31;5062321;28;20197;-68
2023/06/08 00:17:38;;;;;;;7.67;6.87;;;;;;;19.13;81.54;100367.19;5064216;28;20204;-67
2023/06/08 00:20:08;;;;;;;8.53;6.37;;;;;;;19.07;82.27;100362.84;5058639;28;20253;-68
2023/06/08 00:22:36;;;;;;;9.63;7.37;;;;;;;18.91;83.52;100367.66;5058111;28;20253;-68
2023/06/08 00:25:03;;;;;;;8.00;6.90;;;;;;;18.84;84.11;100370.53;5065905;28;20574;-67
2023/06/08 00:27:30;;;;;;;9.57;7.50;;;;;;;18.77;84.21;100369.75;5067247;28;20785;-67
2023/06/08 00:29:57;;;;;;;8.77;7.87;;;;;;;18.69;84.69;100366.31;5060701;28;20249;-67
2023/06/08 00:32:23;;;;;;;8.63;6.80;;;;;;;18.67;85.80;100368.16;5058756;28;20191;-68
2023/06/08 00:34:49;;;;;;;7.97;7.10;;;;;;;18.61;86.65;100366.44;5064328;28;20195;-68
2023/06/08 00:37:16;;;;;;;9.60;7.70;;;;;;;18.53;87.77;100368.41;5062466;28;20460;-67
2023/06/08 00:39:45;;;;;;;10.00;7.57;;;;;;;18.43;88.85;100367.72;5060917;28;20225;-67
2023/06/08 00:42:11;;;;;;;14.83;7.63;;;;;;;18.32;89.88;100363.44;5059757;28;20265;-67
2023/06/08 00:44:37;;;;;;;13.27;8.10;;;;;;;18.26;90.91;100359.06;5066081;28;20270;-67
2023/06/08 00:47:04;;;;;;;10.93;7.73;;;;;;;18.21;91.62;100362.75;5061823;28;20198;-67
2023/06/08 00:49:32;;;;;;;10.60;7.90;;;;;;;18.10;92.28;100362.97;5053032;28;20205;-67
2023/06/08 00:52:01;;;;;;;8.87;7.83;;;;;;;18.01;93.36;100360.41;5063322;28;20197;-67
2023/06/08 00:54:30;;;;;;;13.77;8.57;;;;;;;17.92;94.02;100357.91;5060374;28;20253;-68
2023/06/08 00:57:00;;;;;;;11.23;8.43;;;;;;;17.86;94.56;100356.22;5060985;28;20205;-67
2023/06/08 00:59:32;;;;;;;12.27;8.27;;;;;;;17.82;94.89;100355.38;5042748;28;20290;-67
2023/06/08 01:01:58;;;;;;;13.53;8.33;;;;;;;17.76;95.26;100354.59;5059502;28;20202;-67
2023/06/08 01:04:25;;;;;;;10.93;8.83;;;;;;;17.75;95.40;100352.84;5059894;28;20231;-67
2023/06/08 01:07:44;;;;;;;10.47;8.77;;;;;;;17.63;96.18;100350.34;5059216;28;20473;-67
2023/06/08 01:10:18;;;;;;;10.63;8.27;;;;;;;17.47;97.01;100347.88;5013098;28;20580;-67
2023/06/08 01:12:51;;;;;;;11.50;9.43;;;;;;;17.38;98.63;100356.06;5066307;28;20190;-67
2023/06/08 01:15:42;;;;;;;12.47;8.93;;;;;;;17.27;99.39;100352.66;5065917;28;20209;-67
2023/06/08 01:18:10;;;;;;;10.90;9.27;;;;;;;17.23;100.00;100350.94;5055357;28;20205;-67
2023/06/08 01:20:55;;;;;;;11.27;9.40;;;;;;;17.14;100.00;100346.56;5057103;28;20241;-67
2023/06/08 01:23:37;;;;;;;11.67;9.03;;;;;;;17.08;100.00;100346.66;5059538;28;20219;-67
2023/06/08 01:26:04;;;;;;;14.00;9.77;;;;;;;16.95;100.00;100347.75;5061454;28;20206;-68
2023/06/08 01:28:31;;;;;;;12.67;9.83;;;;;;;16.86;100.00;100350.56;5056386;28;20742;-67
2023/06/08 01:30:58;;;;;;;11.47;9.57;;;;;;;16.86;100.00;100355.91;5060111;28;20766;-68
2023/06/08 01:33:28;;;;;;;12.93;9.60;;;;;;;16.85;100.00;100351.47;5059374;28;20190;-67
2023/06/08 01:36:10;;;;;;;10.97;9.53;;;;;;;16.71;100.00;100356.06;5061024;28;20202;-67
2023/06/08 01:39:27;;;;;;;11.67;9.57;;;;;;;16.68;100.00;100348.09;5057974;28;20205;-67
2023/06/08 01:41:59;;;;;;;12.50;9.53;;;;;;;16.72;100.00;100352.50;4995042;28;20608;-67
2023/06/08 01:44:28;;;;;;;12.87;10.00;;;;;;;16.68;100.00;100346.28;4986074;28;21029;-67
2023/06/08 01:46:58;;;;;;;12.63;9.87;;;;;;;16.65;100.00;100348.97;5031153;28;20206;-67
2023/06/08 01:49:27;;;;;;;10.90;9.80;;;;;;;16.68;100.00;100343.63;5054516;28;20191;-67
2023/06/08 01:51:54;;;;;;;12.87;10.07;;;;;;;16.70;100.00;100354.31;5058206;28;20206;-67
2023/06/08 01:54:22;;;;;;;12.67;9.73;;;;;;;16.69;100.00;100353.41;5055463;28;20384;-67
2023/06/08 01:56:48;;;;;;;11.87;10.03;;;;;;;16.61;100.00;100355.28;5056502;28;20202;-67
2023/06/08 01:59:15;;;;;;;13.07;10.30;;;;;;;16.52;100.00;100355.38;5063102;28;20199;-68
2023/06/08 02:01:41;;;;;;;15.20;10.47;;;;;;;16.49;100.00;100352.75;5061187;28;20296;-67
2023/06/08 02:04:07;;;;;;;13.57;10.60;;;;;;;16.41;100.00;100344.81;5058151;28;20218;-67
2023/06/08 02:06:35;;;;;;;11.23;9.60;;;;;;;16.35;100.00;100343.97;5057525;28;20705;-67
2023/06/08 02:09:01;;;;;;;14.60;10.40;;;;;;;16.25;100.00;100346.75;5046694;28;20203;-67
2023/06/08 02:11:28;;;;;;;12.93;9.60;;;;;;;16.22;100.00;100351.25;5057651;28;20237;-67
2023/06/08 02:13:54;;;;;;;11.07;9.83;;;;;;;16.19;100.00;100345.94;5067427;28;20190;-67
2023/06/08 02:16:22;;;;;;;11.23;9.60;;;;;;;16.06;100.00;100353.19;5065975;28;20198;-67
2023/06/08 02:18:50;;;;;;;12.13;10.50;;;;;;;15.92;100.00;100353.31;5065472;28;20191;-67
2023/06/08 02:21:16;;;;;;;13.13;10.43;;;;;;;15.89;100.00;100352.44;5072986;28;20566;-67
2023/06/08 02:23:43;;;;;;;12.03;10.73;;;;;;;15.89;100.00;100349.78;5066424;28;20222;-67
2023/06/08 02:26:09;;;;;;;12.27;9.80;;;;;;;15.86;100.00;100352.47;5062499;28;20200;-67
2023/06/08 02:28:36;;;;;;;12.70;10.80;;;;;;;15.73;100.00;100345.47;5063247;28;20289;-67
2023/06/08 02:31:05;;;;;;;14.43;10.30;;;;;;;15.70;100.00;100348.19;5068424;28;20599;-67
2023/06/08 02:33:32;;;;;;;12.97;10.77;;;;;;;15.77;100.00;100355.22;5062744;28;20685;-67
2023/06/08 02:35:58;;;;;;;12.73;10.00;;;;;;;15.72;100.00;100357.06;5058286;28;20194;-67
2023/06/08 02:38:25;;;;;;;11.90;10.03;;;;;;;15.66;100.00;100350.88;5058990;28;20209;-67
2023/06/08 02:40:51;;;;;;;12.50;9.97;;;;;;;15.60;100.00;100358.00;5067122;28;20308;-67
2023/06/08 02:43:19;;;;;;;13.00;10.77;;;;;;;15.65;100.00;100353.56;5068919;28;20246;-67
2023/06/08 02:45:45;;;;;;;13.57;10.07;;;;;;;15.68;100.00;100349.97;5065567;28;20209;-67
2023/06/08 02:48:12;;;;;;;11.90;9.87;;;;;;;15.55;100.00;100350.00;5066791;28;20289;-67
2023/06/08 02:50:38;;;;;;;17.30;10.63;;;;;;;15.36;100.00;100354.59;5057998;28;20223;-67
2023/06/08 02:53:04;;;;;;;12.97;10.63;;;;;;;15.25;100.00;100351.13;5067248;28;20187;-67
2023/06/08 02:55:34;;;;;;;11.70;10.47;;;;;;;15.20;100.00;100352.91;5062844;28;20198;-67
2023/06/08 02:58:02;;;;;;;12.03;10.10;;;;;;;15.17;100.00;100349.38;5068346;28;20190;-67
2023/06/08 03:00:32;;;;;;;13.40;10.27;;;;;;;15.24;100.00;100354.69;5058016;28;20214;-67
2023/06/08 03:03:02;;;;;;;12.67;10.53;;;;;;;15.25;100.00;100356.47;5063448;28;20285;-67
2023/06/08 03:05:29;;;;;;;11.43;10.23;;;;;;;15.27;100.00;100352.00;5067468;28;20285;-67
2023/06/08 03:07:58;;;;;;;10.83;9.70;;;;;;;15.22;100.00;100352.94;5063892;28;20190;-67
2023/06/08 03:10:25;;;;;;;10.67;9.57;;;;;;;15.17;100.00;100352.94;5062493;28;20868;-67
2023/06/08 03:12:52;;;;;;;13.33;9.90;;;;;;;15.14;100.00;100352.94;5061482;28;20205;-67
2023/06/08 03:15:22;;;;;;;11.33;9.43;;;;;;;15.04;100.00;100354.78;5062568;28;20521;-67
2023/06/08 03:17:51;;;;;;;13.67;10.17;;;;;;;15.01;100.00;100351.25;5064145;28;20612;-67
2023/06/08 03:20:18;;;;;;;12.23;9.73;;;;;;;15.01;100.00;100356.59;5066116;28;20225;-67
2023/06/08 03:22:46;;;;;;;10.67;9.50;;;;;;;15.07;100.00;100356.56;5068075;28;20670;-67
2023/06/08 03:25:15;;;;;;;16.40;10.57;;;;;;;15.08;100.00;100354.78;5064682;28;20202;-67
2023/06/08 03:27:42;;;;;;;14.90;10.47;;;;;;;15.11;100.00;100349.41;5066668;28;20561;-67
2023/06/08 03:30:10;;;;;;;12.57;10.70;;;;;;;15.14;100.00;100352.06;5058486;28;20325;-67
2023/06/08 03:32:39;;;;;;;11.23;10.07;;;;;;;15.20;100.00;100349.34;5059060;28;20666;-67
2023/06/08 03:35:06;;;;;;;11.17;9.97;;;;;;;15.27;100.00;100348.44;5060004;28;20627;-67
2023/06/08 03:37:33;;;;;;;12.07;10.73;;;;;;;15.23;100.00;100347.59;5064230;28;20281;-67
2023/06/08 03:39:59;;;;;;;11.23;10.03;;;;;;;15.18;100.00;100353.81;5062212;28;20222;-67
2023/06/08 03:42:26;;;;;;;12.53;10.27;;;;;;;15.13;100.00;100353.84;5070061;28;20207;-67
2023/06/08 03:44:54;;;;;;;10.97;9.83;;;;;;;15.12;100.00;100353.84;5059958;28;20722;-67
2023/06/08 03:47:21;;;;;;;12.27;9.47;;;;;;;15.08;100.00;100354.78;5065649;28;20659;-67
2023/06/08 03:49:47;;;;;;;16.30;10.53;;;;;;;15.04;100.00;100354.78;5058758;28;20709;-67
2023/06/08 03:52:14;;;;;;;13.33;10.23;;;;;;;15.05;100.00;100351.22;5063299;28;20568;-67
2023/06/08 03:54:40;;;;;;;12.73;10.17;;;;;;;15.09;100.00;100346.75;5062779;28;20195;-67
2023/06/08 03:57:07;;;;;;;12.07;10.67;;;;;;;15.20;100.00;100350.25;5063084;28;20195;-67
2023/06/08 03:59:33;;;;;;;12.53;10.27;;;;;;;15.28;100.00;100345.78;5061830;28;20571;-68
2023/06/08 04:01:59;;;;;;;12.77;10.00;;;;;;;15.44;100.00;100356.34;5070299;28;20244;-67
2023/06/08 04:04:28;;;;;;;11.13;9.90;;;;;;;15.59;100.00;100348.22;5060057;28;20281;-67
2023/06/08 04:07:00;;;;;;;10.83;9.43;;;;;;;15.60;100.00;100339.31;5060946;28;20195;-67
2023/06/08 04:09:27;;;;;;;13.70;10.10;;;;;;;15.71;100.00;100345.50;5061963;28;20198;-68
2023/06/08 04:11:56;;;;;;;12.40;9.97;;;;;;;15.78;100.00;100349.00;5062922;28;20197;-67
2023/06/08 04:14:22;;;;;;;14.23;10.53;;;;;;;15.86;100.00;100341.78;5056904;28;20681;-67
2023/06/08 04:16:49;;;;;;;11.80;10.53;;;;;;;16.02;100.00;100347.91;5057559;28;20194;-67
2023/06/08 04:19:15;;;;;;;10.80;9.70;;;;;;;16.07;100.00;100344.28;5062181;28;20218;-67
2023/06/08 04:21:42;;;;;;;12.20;9.87;;;;;;;16.25;100.00;100346.75;5060905;28;20214;-67
2023/06/08 04:24:13;;;;;;;11.63;9.33;;;;;;;16.42;100.00;100351.06;5057281;28;20241;-67
2023/06/08 04:26:40;;;;;;;11.30;9.23;;;;;;;16.55;100.00;100352.66;5061337;28;20253;-67
2023/06/08 04:29:07;;;;;;;12.87;9.50;;;;;;;16.67;100.00;100351.66;5061265;28;20222;-67
2023/06/08 04:31:35;;;;;;;10.40;9.27;;;;;;;16.75;100.00;100352.44;5061383;28;20224;-67
2023/06/08 04:34:04;;;;;;;10.20;8.70;;;;;;;16.76;100.00;100352.44;5063280;28;20651;-67
2023/06/08 04:36:31;;;;;;;13.07;9.23;;;;;;;16.79;100.00;100352.41;5067849;28;20662;-67
2023/06/08 04:38:57;;;;;;;11.30;9.93;;;;;;;16.89;100.00;100363.88;5061164;28;20573;-67
2023/06/08 04:41:25;;;;;;;10.50;8.90;;;;;;;16.90;100.00;100361.19;5059872;28;20783;-67
2023/06/08 04:43:53;;;;;;;10.07;8.97;;;;;;;16.90;100.00;100352.28;5058249;28;20216;-67
2023/06/08 04:46:19;;;;;;;10.50;8.97;;;;;;;16.82;100.00;100359.53;5059733;28;20198;-67
2023/06/08 04:48:46;;;;;;;11.63;8.53;;;;;;;16.72;100.00;100360.50;5063434;28;20199;-67
2023/06/08 04:51:12;;;;;;;13.13;8.90;;;;;;;16.59;100.00;100365.97;5038925;28;20245;-67
2023/06/08 04:53:42;;;;;;;10.93;8.73;;;;;;;16.52;100.00;100363.41;5048328;28;20645;-67
2023/06/08 04:56:09;;;;;;;10.70;8.83;;;;;;;16.52;100.00;100356.25;5066750;28;20198;-67
2023/06/08 04:58:37;;;;;;;9.93;8.93;;;;;;;16.61;100.00;100356.16;5061359;28;20205;-67
2023/06/08 05:01:04;;;;;;;11.77;8.70;;;;;;;16.69;100.00;100349.84;5062342;28;20233;-67
2023/06/08 05:03:30;;;;;;;10.00;8.10;;;;;;;16.82;100.00;100360.41;5058955;28;20219;-67
2023/06/08 05:05:57;;;;;;;13.03;9.53;;;;;;;16.94;100.00;100355.78;5057506;28;20199;-67
2023/06/08 05:08:23;;;;;;;10.20;8.63;;;;;;;17.12;100.00;100355.53;5045476;28;20224;-67
2023/06/08 05:10:49;;;;;;;12.00;9.37;;;;;;;17.30;100.00;100354.41;5066321;23;20325;-69
2023/06/08 05:13:16;;;;;;;11.17;8.43;;;;;;;17.51;99.24;100348.72;5065598;28;20900;-69
2023/06/08 05:15:42;;;;;;;11.07;8.40;;;;;;;17.80;96.97;100351.84;5062011;28;20197;-69
2023/06/08 05:18:09;;;;;;;8.83;7.90;;;;;;;17.92;96.05;100350.75;5062200;28;20199;-69
2023/06/08 05:20:35;;;;;;;9.03;8.13;;;;;;;18.16;94.00;100358.38;5063806;28;20223;-71
2023/06/08 05:23:02;;;;;;;10.33;8.00;;;;;;;18.35;92.91;100355.34;5055112;28;20198;-70
2023/06/08 05:25:31;;;;;;;9.87;8.33;;;;;;;18.55;91.93;100358.53;5053703;28;20598;-68
2023/06/08 05:27:58;;;;;;;13.30;8.87;;;;;;;18.71;91.11;100345.72;5066244;28;20217;-69
2023/06/08 05:30:25;;;;;;;10.30;7.70;;;;;;;19.04;89.69;100363.81;5055647;28;20233;-69
2023/06/08 05:32:52;;;;;;;9.73;7.10;;;;;;;19.19;87.68;100359.88;5056144;28;20226;-68
2023/06/08 05:35:18;;;;;;;10.03;7.13;;;;;;;19.35;85.79;100360.44;5054796;28;20287;-69
2023/06/08 05:37:45;;;;;;;8.00;7.20;;;;;;;19.38;84.83;100363.06;5056956;28;20289;-68
2023/06/08 05:40:12;;;;;;;8.77;6.83;;;;;;;19.34;85.49;100356.00;5054223;28;20218;-68
2023/06/08 05:42:38;;;;;;;10.33;6.87;;;;;;;19.22;84.50;100357.16;5053919;28;20209;-70
2023/06/08 05:45:05;;;;;;;7.87;7.00;;;;;;;19.22;84.91;100356.28;5036171;28;20240;-68
2023/06/08 05:47:31;;;;;;;9.50;6.57;;;;;;;19.34;85.09;100356.00;5053101;28;20293;-69
2023/06/08 05:50:00;;;;;;;9.77;6.97;;;;;;;19.58;83.51;100347.38;5055688;28;20541;-69
2023/06/08 05:52:27;;;;;;;9.00;7.27;;;;;;;19.65;83.15;100342.75;5051976;28;20357;-69
2023/06/08 05:54:53;;;;;;;8.20;6.47;;;;;;;19.94;81.99;100347.38;5058716;28;20298;-69
2023/06/08 05:57:20;;;;;;;8.80;6.93;;;;;;;20.11;78.75;100350.53;5057341;28;20233;-70
2023/06/08 05:59:46;;;;;;;8.57;6.70;;;;;;;20.18;78.67;100343.19;5056629;28;20198;-69
2023/06/08 06:02:13;;;;;;;7.77;6.53;;;;;;;20.22;78.53;100344.88;5052990;28;20260;-69
2023/06/08 06:04:40;;;;;;;7.93;6.53;;;;;;;20.33;77.87;100348.13;5060877;28;20218;-69
2023/06/08 06:07:07;;;;;;;8.03;6.60;;;;;;;20.41;77.95;100353.34;5050098;28;20203;-69
2023/06/08 06:09:34;;;;;;;7.73;6.53;;;;;;;20.37;76.89;100338.16;5051857;28;20198;-68
2023/06/08 06:12:01;;;;;;;12.80;6.87;;;;;;;20.27;77.68;100348.31;5057458;28;20229;-68
2023/06/08 06:14:36;;;;;;;7.77;6.80;;;;;;;20.22;78.25;100350.25;5058214;28;20201;-69
2023/06/08 06:17:04;;;;;;;8.13;6.47;;;;;;;20.01;78.56;100352.59;5053037;28;20198;-70
2023/06/08 06:19:37;;;;;;;11.33;7.63;;;;;;;19.89;79.50;100349.31;5055544;28;20207;-70
2023/06/08 06:22:09;;;;;;;8.33;6.73;;;;;;;19.81;80.45;100357.56;5057099;28;20318;-70
2023/06/08 06:24:36;;;;;;;7.40;6.57;;;;;;;19.68;80.76;100366.88;5049730;28;20215;-69
2023/06/08 06:27:04;;;;;;;7.60;6.80;;;;;;;19.62;81.29;100358.97;5051179;28;20202;-69
2023/06/08 06:29:30;;;;;;;9.27;7.57;;;;;;;19.50;81.55;100352.00;5058025;28;20213;-70
2023/06/08 06:31:56;;;;;;;10.93;6.90;;;;;;;19.58;81.74;100357.22;5053266;28;20225;-69
2023/06/08 06:34:23;;;;;;;9.83;7.17;;;;;;;19.61;81.42;100365.22;5056162;28;20202;-69
2023/06/08 06:36:50;;;;;;;10.17;7.50;;;;;;;19.60;81.89;100356.28;5055141;28;20191;-69
2023/06/08 06:39:18;;;;;;;7.60;6.77;;;;;;;19.64;81.66;100370.53;5059241;28;20201;-69
2023/06/08 06:41:44;;;;;;;8.70;6.97;;;;;;;19.60;81.60;100366.13;5064398;28;20225;-69
2023/06/08 06:44:10;;;;;;;7.10;6.40;;;;;;;19.65;81.86;100375.00;5057289;28;20304;-69
2023/06/08 06:46:37;;;;;;;8.67;6.43;;;;;;;19.64;81.95;100374.13;5052364;28;20198;-69
2023/06/08 06:49:04;;;;;;;8.20;7.03;;;;;;;19.66;81.66;100374.97;5059295;28;20198;-69
2023/06/08 06:51:30;;;;;;;7.00;6.30;;;;;;;19.73;81.66;100377.50;5057647;28;20218;-70
2023/06/08 06:53:57;;;;;;;10.00;7.13;;;;;;;19.77;81.81;100377.38;5056820;28;20203;-69
2023/06/08 06:56:23;;;;;;;9.40;7.07;;;;;;;19.81;81.98;100384.44;5061707;28;20224;-69
2023/06/08 06:58:52;;;;;;;9.93;7.17;;;;;;;19.94;81.66;100383.22;5059287;28;20207;-67
2023/06/08 07:01:18;;;;;;;9.13;7.10;;;;;;;20.02;81.10;100378.56;5054079;28;20313;-68
2023/06/08 07:03:46;;;;;;;7.80;7.00;;;;;;;20.17;80.68;100371.00;5060333;28;20667;-69
2023/06/08 07:06:13;;;;;;;8.95;6.93;;;;;;;20.36;79.52;100372.25;5059049;28;20194;-69
2023/06/08 07:08:41;;;;;;;8.88;7.03;;;;;;;20.44;78.89;100377.50;5057547;28;20202;-68
2023/06/08 07:11:08;;;;;;;8.45;6.38;;;;;;;21.00;76.91;100383.97;5057957;28;20231;-69
2023/06/08 07:13:34;;;;;;;8.35;7.07;;;;;;;22.30;72.34;100374.44;5062685;28;20624;-68
2023/06/08 07:16:03;;;;;;;9.45;7.00;;;;;;;23.64;66.46;100372.13;5066290;28;20186;-70
2023/06/08 07:18:30;;;;;;;8.38;7.00;;;;;;;25.08;60.89;100374.91;5058887;28;20666;-68
2023/06/08 07:20:57;;;;;;;8.63;6.63;;;;;;;26.44;52.61;100377.28;5061970;28;20309;-70
2023/06/08 07:23:24;;;;;;;9.27;6.10;;;;;;;26.55;49.71;100369.44;5040326;28;20219;-69
2023/06/08 07:26:11;;;;;;;8.00;6.40;;;;;;;25.98;50.63;100367.84;5061549;28;20215;-69
2023/06/08 07:28:59;;;;;;;7.93;6.55;;;;;;;26.05;50.59;100362.06;5055565;28;20201;-69
2023/06/08 07:31:29;;;;;;;8.00;6.78;;;;;;;27.97;46.20;100358.78;5060821;28;20583;-69
2023/06/08 07:33:57;;;;;;;7.57;5.93;;;;;;;30.00;42.10;100365.09;5061499;28;20282;-69
2023/06/08 07:36:23;;;;;;;10.82;7.00;;;;;;;30.21;39.77;100370.00;5057414;28;20198;-69
2023/06/08 07:38:52;;;;;;;9.48;6.43;;;;;;;30.32;38.89;100368.41;5065004;28;20205;-69
2023/06/08 07:41:19;;;;;;;6.63;6.03;;;;;;;30.92;37.88;100374.22;5055208;28;20227;-69
2023/06/08 07:43:46;;;;;;;9.73;6.50;;;;;;;30.64;37.58;100375.28;5061564;28;20644;-69
2023/06/08 07:46:13;;;;;;;10.10;8.02;;;;;;;30.67;37.56;100375.06;5064490;28;20218;-70
2023/06/08 07:48:39;;;;;;;8.55;6.75;;;;;;;29.38;39.88;100376.44;5042207;28;20207;-69
2023/06/08 07:51:06;;;;;;;9.18;6.30;;;;;;;29.58;39.50;100375.16;5060253;28;20221;-68
2023/06/08 07:53:37;;;;;;;11.43;7.25;;;;;;;29.87;38.84;100376.84;5055720;28;20285;-68
2023/06/08 07:56:04;;;;;;;7.47;6.35;;;;;;;31.07;36.97;100372.22;5064400;28;20197;-69
2023/06/08 07:58:31;;;;;;;8.05;7.25;;;;;;;31.05;35.79;100372.34;5058479;28;20195;-69
2023/06/08 08:00:59;;;;;;;7.78;6.70;;;;;;;30.64;36.42;100388.94;5064256;28;20275;-69
2023/06/08 08:03:25;;;;;;;7.63;6.15;;;;;;;30.15;37.67;100378.63;5055739;28;20212;-70
2023/06/08 08:05:52;;;;;;;7.57;6.75;;;;;;;30.75;36.02;100379.97;5039232;28;20690;-69
2023/06/08 08:08:19;;;;;;;7.10;6.40;;;;;;;30.05;36.71;100379.38;5053544;28;20286;-69
2023/06/08 08:10:46;;;;;;;7.07;6.13;;;;;;;29.07;38.84;100374.78;5063191;28;20293;-71
2023/06/08 08:13:13;;;;;;;7.28;6.50;;;;;;;29.82;38.06;100364.47;5056521;28;20195;-70
2023/06/08 08:15:40;;;;;;;7.70;6.90;;;;;;;29.21;39.05;100372.06;5063056;28;20203;-69
2023/06/08 08:18:07;;;;;;;7.57;6.78;;;;;;;28.76;40.48;100370.34;5056728;28;20203;-66
2023/06/08 08:20:33;;;;;;;7.53;6.68;;;;;;;27.42;43.96;100379.16;5057889;28;20227;-68
2023/06/08 08:23:00;;;;;;;8.25;6.47;;;;;;;26.94;44.86;100376.41;5056696;28;20578;-68
2023/06/08 08:25:26;;;;;;;8.75;6.78;;;;;;;26.90;45.31;100378.44;5057761;28;20221;-68
2023/06/08 08:27:53;;;;;;;6.80;6.10;;;;;;;26.97;44.84;100381.69;5054797;28;20583;-69
2023/06/08 08:30:21;;;;;;;8.45;6.38;;;;;;;27.46;44.65;100374.44;5061127;28;20310;-67
2023/06/08 08:32:48;;;;;;;11.00;6.88;;;;;;;26.80;46.07;100372.59;5058076;28;20434;-68
2023/06/08 08:35:15;;;;;;;8.57;7.28;;;;;;;26.53;46.43;100374.06;5057610;28;20310;-68
2023/06/08 08:37:42;;;;;;;7.50;6.72;;;;;;;26.38;47.00;100369.44;5054608;28;20289;-70
2023/06/08 08:40:09;;;;;;;8.30;6.85;;;;;;;25.90;47.84;100376.38;5056828;28;20634;-68
2023/06/08 08:42:43;;;;;;;7.82;7.07;;;;;;;25.99;47.69;100370.47;5054180;28;20868;-68
2023/06/08 08:45:13;;;;;;;8.10;6.80;;;;;;;26.37;47.62;100373.97;5053946;28;20219;-69
2023/06/08 08:47:41;;;;;;;7.63;6.75;;;;;;;26.92;45.86;100371.06;5050345;28;20194;-65
2023/06/08 08:50:16;;;;;;;7.10;6.40;;;;;;;27.28;45.65;100370.03;5065125;28;20224;-68
2023/06/08 08:52:48;;;;;;;7.72;6.93;;;;;;;26.74;45.94;100372.03;5058929;28;20202;-68
2023/06/08 08:55:16;;;;;;;8.90;7.78;;;;;;;26.36;47.35;100371.34;5065352;28;20866;-68
2023/06/08 08:58:00;;;;;;;10.32;7.38;;;;;;;26.66;46.67;100366.16;5066040;28;20194;-69
2023/06/08 09:00:27;;;;;;;9.95;7.35;;;;;;;26.83;46.10;100367.00;5059464;28;20225;-68
2023/06/08 09:02:54;;;;;;;6.97;6.30;;;;;;;27.03;45.21;100367.78;5058330;28;20194;-68
2023/06/08 09:05:21;;;;;;;8.90;7.43;;;;;;;27.20;45.61;100364.13;5055747;28;20214;-70
2023/06/08 09:07:47;;;;;;;7.85;7.03;;;;;;;27.22;44.65;100363.09;5050235;28;20191;-68
2023/06/08 09:10:15;;;;;;;8.48;6.97;;;;;;;26.81;45.63;100371.63;5057941;28;20231;-68
2023/06/08 09:12:43;;;;;;;9.05;7.25;;;;;;;26.45;45.69;100371.78;5053046;28;20639;-68
2023/06/08 09:15:11;;;;;;;9.18;7.47;;;;;;;26.38;46.38;100361.28;5055302;28;20190;-68
2023/06/08 09:17:40;;;;;;;9.35;6.88;;;;;;;26.72;45.40;100368.53;5055700;28;20205;-68
2023/06/08 09:20:10;;;;;;;10.02;7.10;;;;;;;26.88;45.80;100371.31;5051574;28;20246;-69
2023/06/08 09:25:58;;;;;;;9.98;7.38;;;;;;;26.90;45.66;100353.09;5057844;28;20713;-68
2023/06/08 09:28:25;;;;;;;9.05;7.85;;;;;;;26.64;46.32;100355.34;5064461;28;20221;-67
2023/06/08 09:30:55;;;;;;;9.10;7.75;;;;;;;25.93;49.23;100357.22;5058845;28;20215;-68
2023/06/08 09:33:25;;;;;;;8.45;7.65;;;;;;;25.83;49.85;100356.81;5059654;28;20222;-68
2023/06/08 09:35:58;;;;;;;11.60;8.68;;;;;;;26.23;49.30;100352.94;5054250;28;20202;-68
2023/06/08 09:38:29;;;;;;;9.75;7.43;;;;;;;26.58;48.39;100343.94;5059116;28;20198;-69
2023/06/08 09:41:22;;;;;;;9.52;7.72;;;;;;;26.95;47.41;100353.72;5058210;28;20307;-70
2023/06/08 09:43:50;;;;;;;8.77;7.90;;;;;;;27.13;46.11;100350.00;5061978;28;20200;-70
2023/06/08 09:46:39;;;;;;;8.48;7.57;;;;;;;27.41;45.86;100346.63;5068177;28;20301;-69
2023/06/08 09:49:07;;;;;;;9.63;8.05;;;;;;;27.56;44.49;100340.28;5064924;28;20281;-70
2023/06/08 09:51:37;;;;;;;10.75;8.48;;;;;;;27.63;45.08;100346.31;5066945;28;20225;-71
2023/06/08 09:54:06;;;;;;;10.63;7.75;;;;;;;27.31;44.31;100348.09;5067414;28;20194;-70
2023/06/08 09:56:36;;;;;;;12.40;8.75;;;;;;;27.14;45.25;100347.19;5064912;28;20227;-70
2023/06/08 09:59:08;;;;;;;8.43;7.38;;;;;;;27.20;45.29;100343.25;5060544;28;20236;-71
2023/06/08 10:01:54;;;;;;;9.15;7.88;;;;;;;27.55;45.03;100324.03;5069110;28;20241;-70
2023/06/08 10:04:22;;;;;;;9.00;8.05;;;;;;;27.72;45.84;100334.88;5060828;28;20678;-68
2023/06/08 10:06:55;;;;;;;9.32;7.90;;;;;;;27.82;44.08;100327.03;5070995;28;20745;-70
2023/06/08 10:09:29;;;;;;;9.70;7.28;;;;;;;27.95;44.29;100328.06;5058314;28;20199;-69
2023/06/08 10:12:00;;;;;;;8.38;7.57;;;;;;;28.03;44.07;100331.22;5063088;28;20282;-69
2023/06/08 10:14:27;;;;;;;10.02;8.15;;;;;;;28.03;44.21;100325.78;5064663;28;20194;-71
2023/06/08 10:16:55;;;;;;;11.98;8.80;;;;;;;27.92;44.38;100329.13;5056363;28;20190;-68
2023/06/08 10:19:23;;;;;;;11.07;7.45;;;;;;;28.20;44.05;100317.47;5062454;28;20750;-70
2023/06/08 10:21:52;;;;;;;9.35;7.55;;;;;;;28.45;43.95;100321.47;5066611;28;20246;-69
2023/06/08 10:24:21;;;;;;;10.65;8.15;;;;;;;27.84;44.52;100323.25;5069127;28;20217;-70
2023/06/08 10:26:50;;;;;;;9.95;8.30;;;;;;;27.59;44.20;100317.47;5065164;28;20225;-70
2023/06/08 10:29:25;;;;;;;9.18;8.27;;;;;;;27.16;45.41;100317.19;5065154;28;20548;-69
2023/06/08 10:31:52;;;;;;;14.63;7.75;;;;;;;27.39;46.11;100311.34;5071717;28;20604;-70
2023/06/08 10:34:18;;;;;;;10.00;7.78;;;;;;;27.65;44.81;100314.44;5065579;28;20198;-70
2023/06/08 10:36:45;;;;;;;9.18;7.53;;;;;;;27.78;43.51;100307.31;5073819;28;20224;-69
2023/06/08 10:39:14;;;;;;;8.82;8.02;;;;;;;27.85;43.36;100303.25;5070220;28;20198;-71
2023/06/08 10:41:43;;;;;;;8.35;7.15;;;;;;;28.26;43.65;100303.50;5060015;28;20218;-70
2023/06/08 10:44:27;;;;;;;9.07;7.30;;;;;;;28.44;42.21;100301.50;5066025;28;20707;-70
2023/06/08 10:47:07;;;;;;;9.00;7.65;;;;;;;28.68;41.27;100288.19;5072089;28;20246;-69
2023/06/08 10:49:38;;;;;;;8.90;7.65;;;;;;;28.32;41.51;100297.66;5071482;28;20288;-69
2023/06/08 10:52:10;;;;;;;7.97;7.18;;;;;;;28.05;41.80;100283.88;5069820;28;20868;-69
2023/06/08 10:55:11;;;;;;;9.75;7.28;;;;;;;28.59;41.84;100278.75;5050603;28;20260;-69
2023/06/08 10:57:45;;;;;;;10.68;7.43;;;;;;;28.90;40.31;100285.88;5057377;28;20190;-71
2023/06/08 11:00:42;;;;;;;8.82;7.60;;;;;;;29.01;40.22;100279.75;5060720;28;20239;-70
2023/06/08 11:03:11;;;;;;;9.80;7.65;;;;;;;28.77;40.38;100276.69;5057819;28;20194;-70
2023/06/08 11:05:41;;;;;;;8.02;7.13;;;;;;;28.80;39.88;100271.03;5064985;28;20218;-70
2023/06/08 11:08:08;;;;;;;9.05;8.13;;;;;;;28.98;40.76;100264.44;5045943;28;20276;-70
2023/06/08 11:10:36;;;;;;;9.40;7.95;;;;;;;29.04;40.47;100255.00;5074916;23;20867;-67
2023/06/08 11:13:22;;;;;;;8.88;7.97;;;;;;;29.15;40.47;100268.78;5062598;28;20221;-67
2023/06/08 11:15:48;;;;;;;8.90;7.68;;;;;;;29.34;40.60;100263.03;5065383;28;20662;-67
2023/06/08 11:18:18;;;;;;;9.23;7.45;;;;;;;29.34;41.40;100263.03;5066560;28;20190;-67
2023/06/08 11:20:45;;;;;;;9.07;7.65;;;;;;;29.22;39.44;100252.91;5058889;28;20638;-67
2023/06/08 11:23:13;;;;;;;8.13;7.43;;;;;;;29.53;40.10;100249.91;5049683;28;20428;-67
2023/06/08 11:25:40;;;;;;;8.30;7.50;;;;;;;29.72;38.77;100248.69;5030183;28;20218;-67
2023/06/08 11:28:10;;;;;;;8.57;7.65;;;;;;;29.44;37.75;100249.66;5053123;28;20213;-67